createdAt,value
2022-11-15T00:00:48.748Z,12.88
2022-11-15T00:03:19.551Z,12.96
2022-11-15T00:05:46.822Z,12.96
2022-11-15T00:08:13.482Z,12.95
2022-11-15T00:10:40.552Z,12.94
2022-11-15T00:13:13.991Z,12.93
2022-11-15T00:15:42.121Z,12.92
2022-11-15T00:18:14.212Z,12.88
2022-11-15T00:20:40.939Z,12.84
2022-11-15T00:23:07.907Z,12.86
2022-11-15T00:25:34.847Z,12.88
2022-11-15T00:28:02.053Z,12.87
2022-11-15T00:30:29.250Z,12.88
2022-11-15T00:32:56.107Z,12.89
2022-11-15T00:35:23.030Z,12.89
2022-11-15T00:37:49.659Z,12.89
2022-11-15T00:40:16.370Z,12.87
2022-11-15T00:42:43.060Z,12.86
2022-11-15T00:45:10.421Z,12.87
2022-11-15T00:47:36.981Z,12.87
2022-11-15T00:50:03.915Z,12.86
2022-11-15T00:52:30.429Z,12.87
2022-11-15T00:54:56.942Z,12.86
2022-11-15T00:57:23.520Z,12.85
2022-11-15T00:59:50.055Z,12.87
2022-11-15T01:02:16.545Z,12.89
2022-11-15T01:04:43.088Z,12.87
2022-11-15T01:07:09.707Z,12.86
2022-11-15T01:09:36.279Z,12.87
2022-11-15T01:12:02.785Z,12.88
2022-11-15T01:14:29.277Z,12.89
2022-11-15T01:16:55.803Z,12.87
2022-11-15T01:19:22.565Z,12.88
2022-11-15T01:21:52.533Z,12.88
2022-11-15T01:24:19.177Z,12.85
2022-11-15T01:26:45.727Z,12.85
2022-11-15T01:29:12.260Z,12.86
2022-11-15T01:31:39.145Z,12.86
2022-11-15T01:34:05.736Z,12.86
2022-11-15T01:36:32.403Z,12.86
2022-11-15T01:39:00.164Z,12.84
2022-11-15T01:41:29.815Z,12.82
2022-11-15T01:44:17.666Z,12.78
2022-11-15T01:46:48.277Z,12.73
2022-11-15T01:49:20.608Z,12.70
2022-11-15T01:51:47.474Z,12.68
2022-11-15T01:54:18.099Z,12.63
2022-11-15T01:56:54.349Z,12.62
2022-11-15T01:59:21.075Z,12.63
2022-11-15T02:01:48.093Z,12.62
2022-11-15T02:04:20.157Z,12.62
2022-11-15T02:06:47.995Z,12.53
2022-11-15T02:09:14.965Z,12.57
2022-11-15T02:11:42.540Z,12.56
2022-11-15T02:14:10.998Z,12.54
2022-11-15T02:16:55.983Z,12.53
2022-11-15T02:19:34.835Z,12.56
2022-11-15T02:22:10.584Z,12.55
2022-11-15T02:25:04.157Z,12.52
2022-11-15T02:27:48.784Z,12.50
2022-11-15T02:30:22.605Z,12.50
2022-11-15T02:32:56.149Z,12.48
2022-11-15T02:35:38.402Z,12.44
2022-11-15T02:38:04.830Z,12.37
2022-11-15T02:40:56.701Z,12.36
2022-11-15T02:43:50.897Z,12.34
2022-11-15T02:47:05.805Z,12.28
2022-11-15T02:49:34.876Z,12.21
2022-11-15T02:52:01.767Z,12.16
2022-11-15T02:54:32.784Z,12.11
2022-11-15T02:57:12.084Z,12.06
2022-11-15T02:59:57.440Z,11.98
2022-11-15T03:02:42.594Z,11.92
2022-11-15T03:05:27.886Z,11.86
2022-11-15T03:08:13.101Z,11.82
2022-11-15T03:10:54.924Z,11.73
2022-11-15T03:13:24.210Z,11.64
2022-11-15T03:16:15.827Z,11.51
2022-11-15T03:18:52.630Z,11.33
2022-11-15T03:21:22.798Z,11.19
2022-11-15T03:23:51.945Z,11.09
2022-11-15T03:26:22.979Z,10.98
2022-11-15T03:28:58.342Z,10.89
2022-11-15T03:31:50.562Z,10.85
2022-11-15T03:34:41.401Z,10.83
2022-11-15T03:37:09.343Z,10.79
2022-11-15T03:39:35.942Z,10.70
2022-11-15T03:42:05.181Z,10.64
2022-11-15T03:44:34.728Z,10.58
2022-11-15T03:47:13.478Z,10.54
2022-11-15T03:49:45.500Z,10.56
2022-11-15T03:52:12.224Z,10.46
2022-11-15T03:54:49.092Z,10.47
2022-11-15T03:57:15.660Z,10.51
2022-11-15T03:59:42.214Z,10.46
2022-11-15T04:02:08.752Z,10.45
2022-11-15T04:04:35.275Z,10.45
2022-11-15T04:07:02.098Z,10.41
2022-11-15T04:09:28.617Z,10.39
2022-11-15T04:11:55.206Z,10.40
2022-11-15T04:14:21.736Z,10.39
2022-11-15T04:16:48.267Z,10.37
2022-11-15T04:19:43.616Z,10.34
2022-11-15T04:22:28.482Z,10.27
2022-11-15T04:24:55.002Z,10.24
2022-11-15T04:27:21.553Z,10.20
2022-11-15T04:29:48.092Z,10.15
2022-11-15T04:32:14.646Z,10.19
2022-11-15T04:34:41.180Z,10.24
2022-11-15T04:37:13.767Z,10.31
2022-11-15T04:39:41.625Z,10.35
2022-11-15T04:42:08.965Z,10.40
2022-11-15T04:44:36.170Z,10.42
2022-11-15T04:47:03.553Z,10.41
2022-11-15T04:49:30.198Z,10.43
2022-11-15T04:51:56.771Z,10.48
2022-11-15T04:54:23.336Z,10.48
2022-11-15T04:56:49.973Z,10.48
2022-11-15T04:59:16.474Z,10.50
2022-11-15T05:01:45.121Z,10.54
2022-11-15T05:04:21.028Z,10.55
2022-11-15T05:06:49.157Z,10.59
2022-11-15T05:09:16.092Z,10.58
2022-11-15T05:11:43.073Z,10.60
2022-11-15T05:14:09.709Z,10.61
2022-11-15T05:16:37.001Z,10.60
2022-11-15T05:19:04.400Z,10.57
2022-11-15T05:21:31.412Z,10.53
2022-11-15T05:23:58.053Z,10.47
2022-11-15T05:26:24.706Z,10.45
2022-11-15T05:28:58.741Z,10.38
2022-11-15T05:31:26.601Z,10.26
2022-11-15T05:33:55.865Z,10.13
2022-11-15T05:36:39.861Z,9.94
2022-11-15T05:39:09.215Z,9.83
2022-11-15T05:41:45.351Z,9.70
2022-11-15T05:44:16.473Z,9.62
2022-11-15T05:46:44.160Z,9.53
2022-11-15T05:49:14.567Z,9.50
2022-11-15T05:51:43.009Z,9.49
2022-11-15T05:54:10.477Z,9.52
2022-11-15T05:56:37.023Z,9.57
2022-11-15T05:59:04.246Z,9.93
2022-11-15T06:01:30.954Z,10.42
2022-11-15T06:03:57.451Z,10.83
2022-11-15T06:06:24.024Z,11.14
2022-11-15T06:08:50.539Z,11.38
2022-11-15T06:11:17.094Z,11.63
2022-11-15T06:13:43.633Z,11.86
2022-11-15T06:16:10.213Z,11.99
2022-11-15T06:18:37.610Z,12.09
2022-11-15T06:21:05.131Z,12.14
2022-11-15T06:23:35.900Z,12.16
2022-11-15T06:26:03.994Z,12.20
2022-11-15T06:28:32.446Z,12.26
2022-11-15T06:31:06.744Z,12.32
2022-11-15T06:33:34.155Z,12.38
2022-11-15T06:36:02.898Z,12.39
2022-11-15T06:38:29.437Z,12.17
2022-11-15T06:40:56.245Z,11.81
2022-11-15T06:43:22.823Z,11.43
2022-11-15T06:45:49.368Z,11.13
2022-11-15T06:48:15.874Z,10.83
2022-11-15T06:50:42.524Z,10.59
2022-11-15T06:53:10.199Z,10.43
2022-11-15T06:55:36.719Z,10.30
2022-11-15T06:58:03.230Z,10.22
2022-11-15T07:00:29.822Z,10.18
2022-11-15T07:02:56.446Z,10.17
2022-11-15T07:05:23.064Z,10.17
2022-11-15T07:07:55.101Z,10.16
2022-11-15T07:10:21.885Z,10.11
2022-11-15T07:12:55.505Z,10.18
2022-11-15T07:15:24.652Z,10.20
2022-11-15T07:17:51.613Z,10.21
2022-11-15T07:20:19.360Z,10.24
2022-11-15T07:22:46.366Z,10.27
2022-11-15T07:25:13.060Z,10.30
2022-11-15T07:27:39.620Z,10.33
2022-11-15T07:30:06.999Z,10.36
2022-11-15T07:32:33.650Z,10.40
2022-11-15T07:35:00.208Z,10.43
2022-11-15T07:37:26.722Z,10.46
2022-11-15T07:39:53.294Z,10.52
2022-11-15T07:42:38.552Z,10.53
2022-11-15T07:45:06.097Z,10.57
2022-11-15T07:47:32.607Z,10.62
2022-11-15T07:49:59.147Z,10.64
2022-11-15T07:52:25.849Z,10.65
2022-11-15T07:54:52.487Z,10.64
2022-11-15T07:57:19.019Z,10.65
2022-11-15T07:59:45.655Z,10.67
2022-11-15T08:02:12.839Z,10.72
2022-11-15T08:04:39.539Z,10.73
2022-11-15T08:07:06.285Z,10.73
2022-11-15T08:09:32.863Z,10.74
2022-11-15T08:11:59.354Z,10.75
2022-11-15T08:14:25.920Z,10.74
2022-11-15T08:16:53.527Z,10.79
2022-11-15T08:19:20.042Z,10.82
2022-11-15T08:21:46.629Z,10.85
2022-11-15T08:24:13.197Z,10.90
2022-11-15T08:26:40.557Z,10.93
2022-11-15T08:29:09.668Z,10.98
2022-11-15T08:31:37.691Z,11.03
2022-11-15T08:34:05.510Z,11.06
2022-11-15T08:36:41.629Z,11.10
2022-11-15T08:39:13.532Z,11.13
2022-11-15T08:41:40.467Z,11.18
2022-11-15T08:44:07.054Z,11.21
2022-11-15T08:46:33.635Z,11.23
2022-11-15T08:49:00.285Z,11.23
2022-11-15T08:51:26.785Z,11.26
2022-11-15T08:53:53.307Z,11.32
2022-11-15T08:56:19.941Z,11.36
2022-11-15T08:58:47.830Z,11.45
2022-11-15T09:01:20.153Z,11.51
2022-11-15T09:03:46.827Z,11.58
2022-11-15T09:06:13.697Z,11.65
2022-11-15T09:08:47.586Z,11.70
2022-11-15T09:11:17.440Z,11.73
2022-11-15T09:13:44.043Z,11.77
2022-11-15T09:16:12.812Z,11.78
2022-11-15T09:18:39.347Z,11.79
2022-11-15T09:21:05.970Z,11.81
2022-11-15T09:23:32.557Z,11.86
2022-11-15T09:26:01.827Z,11.93
2022-11-15T09:28:29.438Z,11.98
2022-11-15T09:31:04.688Z,12.09
2022-11-15T09:33:31.921Z,12.24
2022-11-15T09:36:09.187Z,12.32
2022-11-15T09:38:36.106Z,12.36
2022-11-15T09:41:15.022Z,12.37
2022-11-15T09:44:09.440Z,12.39
2022-11-15T09:46:54.402Z,12.44
2022-11-15T09:49:22.081Z,12.45
2022-11-15T09:51:51.866Z,12.48
2022-11-15T09:54:50.976Z,12.54
2022-11-15T09:57:27.210Z,12.68
2022-11-15T10:03:11.178Z,13.06
2022-11-15T10:05:42.085Z,13.12
2022-11-15T10:08:22.369Z,13.15
2022-11-15T10:11:09.674Z,13.26
2022-11-15T10:13:48.618Z,13.43
2022-11-15T10:16:44.275Z,13.49
2022-11-15T10:19:26.898Z,13.53
2022-11-15T10:22:35.582Z,13.58
2022-11-15T10:25:25.377Z,13.57
2022-11-15T10:28:03.096Z,13.52
2022-11-15T10:30:37.713Z,13.48
2022-11-15T10:33:37.901Z,13.40
2022-11-15T10:36:10.329Z,13.36
2022-11-15T10:38:49.031Z,13.34
2022-11-15T10:41:17.903Z,13.39
2022-11-15T10:43:44.587Z,13.42
2022-11-15T10:46:45.186Z,13.44
2022-11-15T10:49:17.390Z,13.45
2022-11-15T10:52:00.617Z,13.48
2022-11-15T10:54:38.689Z,13.53
2022-11-15T10:57:19.285Z,13.58
2022-11-15T10:59:54.300Z,13.62
2022-11-15T11:02:34.649Z,13.69
2022-11-15T11:05:02.448Z,13.76
2022-11-15T11:07:32.484Z,13.84
2022-11-15T11:10:49.770Z,13.92
2022-11-15T11:13:27.751Z,14.06
2022-11-15T11:16:19.513Z,14.13
2022-11-15T11:18:54.967Z,14.22
2022-11-15T11:21:50.693Z,14.26
2022-11-15T11:24:35.147Z,14.29
2022-11-15T11:27:31.055Z,14.32
2022-11-15T11:30:17.393Z,14.36
2022-11-15T11:33:05.899Z,14.32
2022-11-15T11:35:56.319Z,14.33
2022-11-15T11:38:38.225Z,14.36
2022-11-15T11:41:32.411Z,14.39
2022-11-15T11:44:08.068Z,14.45
2022-11-15T11:46:43.774Z,14.52
2022-11-15T11:49:16.126Z,14.60
2022-11-15T11:52:08.725Z,14.65
2022-11-15T11:54:48.354Z,14.71
2022-11-15T11:57:39.737Z,14.78
2022-11-15T12:00:18.909Z,14.81
2022-11-15T12:03:08.411Z,14.89
2022-11-15T12:05:44.325Z,15.02
2022-11-15T12:08:29.508Z,15.12
2022-11-15T12:11:06.414Z,15.23
2022-11-15T12:13:37.710Z,15.34
2022-11-15T12:16:10.572Z,15.44
2022-11-15T12:18:38.391Z,15.52
2022-11-15T12:21:15.268Z,15.59
2022-11-15T12:23:53.356Z,15.66
2022-11-15T12:26:40.862Z,15.75
2022-11-15T12:29:20.710Z,15.82
2022-11-15T12:31:51.850Z,15.84
2022-11-15T12:34:21.017Z,15.81
2022-11-15T12:36:48.884Z,15.81
2022-11-15T12:39:16.999Z,15.81
2022-11-15T12:41:45.689Z,15.78
2022-11-15T12:44:33.966Z,15.80
2022-11-15T12:47:08.353Z,15.83
2022-11-15T12:49:38.040Z,15.91
2022-11-15T12:52:07.842Z,16.04
2022-11-15T12:54:37.278Z,16.10
2022-11-15T12:57:03.744Z,16.12
2022-11-15T12:59:49.034Z,16.09
2022-11-15T13:02:25.232Z,16.06
2022-11-15T13:04:53.789Z,16.01
2022-11-15T13:07:35.639Z,15.96
2022-11-15T13:10:11.218Z,15.98
2022-11-15T13:12:40.236Z,15.98
2022-11-15T13:15:12.835Z,15.98
2022-11-15T13:17:52.781Z,15.99
2022-11-15T13:20:33.130Z,16.05
2022-11-15T13:23:05.397Z,16.18
2022-11-15T13:25:41.034Z,16.27
2022-11-15T13:28:10.698Z,16.26
2022-11-15T13:30:38.258Z,16.26
2022-11-15T13:33:17.532Z,16.25
2022-11-15T13:35:48.918Z,16.25
2022-11-15T13:38:31.229Z,16.23
2022-11-15T13:40:59.923Z,16.24
2022-11-15T13:43:28.625Z,16.21
2022-11-15T13:46:13.177Z,16.17
2022-11-15T13:48:44.353Z,16.15
2022-11-15T13:51:36.331Z,16.11
2022-11-15T13:54:30.877Z,16.07
2022-11-15T13:56:57.417Z,16.07
2022-11-15T13:59:48.906Z,16.08
2022-11-15T14:02:27.025Z,16.05
2022-11-15T14:05:05.771Z,16.01
2022-11-15T14:07:33.563Z,15.98
2022-11-15T14:10:25.700Z,15.89
2022-11-15T14:12:53.842Z,15.84
2022-11-15T14:15:38.134Z,15.78
2022-11-15T14:18:06.245Z,15.75
2022-11-15T14:20:39.115Z,15.70
2022-11-15T14:23:26.780Z,15.62
2022-11-15T14:26:00.284Z,15.61
2022-11-15T14:28:26.906Z,15.57
2022-11-15T14:30:56.228Z,15.53
2022-11-15T14:33:37.150Z,15.50
2022-11-15T14:36:23.950Z,15.49
2022-11-15T14:38:50.595Z,15.49
2022-11-15T14:41:25.565Z,15.47
2022-11-15T14:43:53.372Z,15.45
2022-11-15T14:46:20.445Z,15.43
2022-11-15T14:48:46.990Z,15.41
2022-11-15T14:51:18.762Z,15.37
2022-11-15T14:53:46.431Z,15.36
2022-11-15T14:56:14.512Z,15.34
2022-11-15T14:58:41.543Z,15.29
2022-11-15T15:01:25.279Z,15.23
2022-11-15T15:03:53.139Z,15.18
2022-11-15T15:06:20.139Z,15.16
2022-11-15T15:08:49.421Z,15.15
2022-11-15T15:11:22.403Z,15.12
2022-11-15T15:13:49.042Z,15.09
2022-11-15T15:16:15.575Z,15.06
2022-11-15T15:18:42.099Z,15.04
2022-11-15T15:21:26.159Z,15.00
2022-11-15T15:23:56.471Z,15.02
2022-11-15T15:26:26.304Z,14.97
2022-11-15T15:28:52.880Z,14.94
2022-11-15T15:31:20.029Z,14.91
2022-11-15T15:33:46.754Z,14.87
2022-11-15T15:36:15.316Z,14.84
2022-11-15T15:38:42.402Z,14.77
2022-11-15T15:41:16.853Z,14.74
2022-11-15T15:43:43.787Z,14.74
2022-11-15T15:46:16.184Z,14.70
2022-11-15T15:48:43.118Z,14.69
2022-11-15T15:51:17.047Z,14.66
2022-11-15T15:53:47.371Z,14.58
2022-11-15T15:56:13.911Z,14.53
2022-11-15T15:58:40.463Z,14.47
2022-11-15T16:01:07.060Z,14.40
2022-11-15T16:03:33.996Z,14.36
2022-11-15T16:06:00.602Z,14.32
2022-11-15T16:08:42.472Z,14.31
2022-11-15T16:11:17.208Z,14.29
2022-11-15T16:13:43.756Z,14.24
2022-11-15T16:16:14.416Z,14.22
2022-11-15T16:18:40.922Z,14.22
2022-11-15T16:21:09.470Z,14.23
2022-11-15T16:23:35.976Z,14.24
2022-11-15T16:26:04.018Z,14.25
2022-11-15T16:28:33.739Z,14.23
2022-11-15T16:31:11.704Z,14.21
2022-11-15T16:33:39.040Z,14.19
2022-11-15T16:36:07.770Z,14.15
2022-11-15T16:38:34.827Z,14.11
2022-11-15T16:41:01.540Z,14.11
2022-11-15T16:43:28.586Z,14.11
2022-11-15T16:45:55.166Z,14.10
2022-11-15T16:48:27.253Z,14.11
2022-11-15T16:50:57.656Z,14.05
2022-11-15T16:53:25.199Z,14.10
2022-11-15T16:55:51.720Z,14.11
2022-11-15T16:58:18.277Z,14.11
2022-11-15T17:00:45.118Z,14.09
2022-11-15T17:03:12.052Z,14.12
2022-11-15T17:05:38.631Z,14.12
2022-11-15T17:08:05.239Z,14.15
2022-11-15T17:10:31.797Z,14.17
2022-11-15T17:12:58.397Z,14.17
2022-11-15T17:15:25.445Z,14.14
2022-11-15T17:17:55.526Z,14.12
2022-11-15T17:20:24.625Z,14.10
2022-11-15T17:22:52.724Z,14.09
2022-11-15T17:25:19.291Z,14.09
2022-11-15T17:27:46.557Z,14.09
2022-11-15T17:30:15.521Z,14.08
2022-11-15T17:32:42.984Z,14.06
2022-11-15T17:35:15.381Z,14.03
2022-11-15T17:37:42.866Z,14.01
2022-11-15T17:40:10.322Z,13.99
2022-11-15T17:42:36.942Z,13.97
2022-11-15T17:45:09.334Z,13.94
2022-11-15T17:47:37.070Z,13.92
2022-11-15T17:50:04.369Z,13.92
2022-11-15T17:52:30.867Z,13.89
2022-11-15T17:54:57.467Z,13.91
2022-11-15T17:57:24.179Z,13.92
2022-11-15T17:59:50.693Z,13.92
2022-11-15T18:02:17.356Z,13.89
2022-11-15T18:04:43.867Z,13.86
2022-11-15T18:07:12.349Z,13.81
2022-11-15T18:09:42.378Z,13.78
2022-11-15T18:12:09.903Z,13.76
2022-11-15T18:14:36.638Z,13.75
2022-11-15T18:17:03.301Z,13.75
2022-11-15T18:19:29.863Z,13.75
2022-11-15T18:21:56.524Z,13.75
2022-11-15T18:24:29.205Z,13.74
2022-11-15T18:26:56.611Z,13.70
2022-11-15T18:29:24.692Z,13.70
2022-11-15T18:31:55.560Z,13.68
2022-11-15T18:34:24.013Z,13.67
2022-11-15T18:36:52.820Z,13.68
2022-11-15T18:39:19.865Z,13.67
2022-11-15T18:41:46.980Z,13.65
2022-11-15T18:44:13.770Z,13.62
2022-11-15T18:46:40.444Z,13.61
2022-11-15T18:49:12.378Z,13.58
2022-11-15T18:51:41.975Z,13.58
2022-11-15T18:54:11.446Z,13.59
2022-11-15T18:56:38.846Z,13.59
2022-11-15T18:59:06.246Z,13.60
2022-11-15T19:01:35.455Z,13.59
2022-11-15T19:04:20.956Z,13.57
2022-11-15T19:06:49.943Z,13.61
2022-11-15T19:09:18.284Z,13.62
2022-11-15T19:11:46.754Z,13.62
2022-11-15T19:14:15.650Z,13.64
2022-11-15T19:16:54.731Z,13.64
2022-11-15T19:19:23.809Z,13.68
2022-11-15T19:21:51.642Z,13.70
2022-11-15T19:24:18.343Z,13.71
2022-11-15T19:26:45.665Z,13.71
2022-11-15T19:29:13.799Z,13.74
2022-11-15T19:31:40.648Z,13.75
2022-11-15T19:34:08.127Z,13.79
2022-11-15T19:36:39.935Z,13.78
2022-11-15T19:39:09.948Z,13.76
2022-11-15T19:41:38.774Z,13.76
2022-11-15T19:44:06.599Z,13.78
2022-11-15T19:46:33.811Z,13.79
2022-11-15T19:49:00.586Z,13.79
2022-11-15T19:51:29.369Z,13.78
2022-11-15T19:53:58.014Z,13.79
2022-11-15T19:56:24.866Z,13.76
2022-11-15T19:58:53.256Z,13.74
2022-11-15T20:01:31.763Z,13.72
2022-11-15T20:03:59.930Z,13.73
2022-11-15T20:06:29.504Z,13.76
2022-11-15T20:08:56.580Z,13.74
2022-11-15T20:11:23.538Z,13.71
2022-11-15T20:13:50.417Z,13.71
2022-11-15T20:16:20.073Z,13.70
2022-11-15T20:18:48.021Z,13.67
2022-11-15T20:21:14.998Z,13.65
2022-11-15T20:23:41.741Z,13.66
2022-11-15T20:26:09.470Z,13.64
2022-11-15T20:28:38.405Z,13.64
2022-11-15T20:31:05.782Z,13.62
2022-11-15T20:33:32.496Z,13.61
2022-11-15T20:36:03.553Z,13.59
2022-11-15T20:38:30.195Z,13.56
2022-11-15T20:41:00.174Z,13.56
2022-11-15T20:43:27.558Z,13.57
2022-11-15T20:45:54.165Z,13.58
2022-11-15T20:48:20.837Z,13.58
2022-11-15T20:50:47.691Z,13.54
2022-11-15T20:53:17.851Z,13.54
2022-11-15T20:55:49.706Z,13.53
2022-11-15T20:58:17.529Z,13.51
2022-11-15T21:00:45.731Z,13.55
2022-11-15T21:03:14.109Z,13.56
2022-11-15T21:05:42.453Z,13.57
2022-11-15T21:08:10.138Z,13.57
2022-11-15T21:10:55.053Z,13.57
2022-11-15T21:13:22.146Z,13.58
2022-11-15T21:15:48.743Z,13.57
2022-11-15T21:18:15.525Z,13.57
2022-11-15T21:20:42.515Z,13.57
2022-11-15T21:23:09.186Z,13.56
2022-11-15T21:25:36.005Z,13.58
2022-11-15T21:28:02.971Z,13.60
2022-11-15T21:30:29.973Z,13.60
2022-11-15T21:32:56.625Z,13.59
2022-11-15T21:35:23.894Z,13.62
2022-11-15T21:37:56.071Z,13.62
2022-11-15T21:40:22.813Z,13.61
2022-11-15T21:42:49.338Z,13.61
2022-11-15T21:45:15.932Z,13.62
2022-11-15T21:47:46.062Z,13.64
2022-11-15T21:50:13.575Z,13.66
2022-11-15T21:52:40.817Z,13.66
2022-11-15T21:55:08.228Z,13.66
2022-11-15T21:57:34.880Z,13.67
2022-11-15T22:00:20.404Z,13.67
2022-11-15T22:02:46.949Z,13.69
2022-11-15T22:05:13.653Z,13.69
2022-11-15T22:07:40.182Z,13.69
2022-11-15T22:10:07.152Z,13.69
2022-11-15T22:12:33.706Z,13.67
2022-11-15T22:15:00.319Z,13.66
2022-11-15T22:17:46.868Z,13.66
2022-11-15T22:20:37.602Z,13.67
2022-11-15T22:23:00.612Z,13.67
2022-11-15T22:25:27.194Z,13.70
2022-11-15T22:27:54.459Z,13.70
2022-11-15T22:30:21.692Z,13.70
2022-11-15T22:32:48.273Z,13.74
2022-11-15T22:35:15.827Z,13.76
2022-11-15T22:37:42.356Z,13.78
2022-11-15T22:40:09.658Z,13.81
2022-11-15T22:42:36.392Z,13.80
2022-11-15T22:45:03.107Z,13.81
2022-11-15T22:47:29.691Z,13.80
2022-11-15T22:49:56.306Z,13.81
2022-11-15T22:52:22.830Z,13.79
2022-11-15T22:54:49.436Z,13.80
2022-11-15T22:57:16.048Z,13.79
2022-11-15T22:59:42.768Z,13.80
2022-11-15T23:02:09.317Z,13.82
2022-11-15T23:04:35.879Z,13.84
2022-11-15T23:07:02.570Z,13.88
2022-11-15T23:09:29.163Z,13.86
2022-11-15T23:12:14.404Z,13.87
2022-11-15T23:14:41.030Z,13.90
2022-11-15T23:17:07.603Z,13.90
2022-11-15T23:19:34.216Z,13.89
2022-11-15T23:22:19.399Z,13.89
2022-11-15T23:24:46.571Z,13.88
2022-11-15T23:27:15.598Z,13.89
2022-11-15T23:30:14.361Z,13.88
2022-11-15T23:32:59.149Z,13.90
2022-11-15T23:35:26.786Z,13.90
2022-11-15T23:37:53.314Z,13.91
2022-11-15T23:40:20.065Z,13.88
2022-11-15T23:42:46.621Z,13.88
2022-11-15T23:45:13.200Z,13.87
2022-11-15T23:47:39.883Z,13.86
2022-11-15T23:50:06.995Z,13.87
2022-11-15T23:52:33.591Z,13.83
2022-11-15T23:55:00.162Z,13.82
2022-11-15T23:57:26.742Z,13.82
2022-11-15T23:59:53.591Z,13.82
